createdAt,value
2024-03-25T00:00:26.344Z,-0.097444
2024-03-25T00:01:25.285Z,-0.097444
2024-03-25T00:02:25.338Z,-0.097444
2024-03-25T00:03:26.305Z,-0.097444
2024-03-25T00:04:25.332Z,-0.097444
2024-03-25T00:05:26.284Z,-0.081203
2024-03-25T00:06:25.337Z,-0.081203
2024-03-25T00:07:25.340Z,-0.089324
2024-03-25T00:08:26.315Z,-0.097444
2024-03-25T00:09:25.351Z,-0.097444
2024-03-25T00:10:26.292Z,-0.097444
2024-03-25T00:11:25.344Z,-0.097444
2024-03-25T00:12:26.320Z,-0.097444
2024-03-25T00:13:25.350Z,-0.089324
2024-03-25T00:14:25.350Z,-0.097444
2024-03-25T00:15:26.297Z,-0.097444
2024-03-25T00:16:25.356Z,-0.097444
2024-03-25T00:17:26.329Z,-0.097444
2024-03-25T00:18:25.321Z,-0.097444
2024-03-25T00:19:25.315Z,-0.097444
2024-03-25T00:20:26.321Z,-0.097444
2024-03-25T00:21:25.366Z,-0.097444
2024-03-25T00:22:26.335Z,-0.097444
2024-03-25T00:23:25.369Z,-0.097444
2024-03-25T00:24:30.014Z,-0.097444
2024-03-25T00:25:26.315Z,-0.080066
2024-03-25T00:26:25.380Z,-0.089324
2024-03-25T00:27:26.355Z,-0.097444
2024-03-25T00:28:25.395Z,-0.097444
2024-03-25T00:29:26.315Z,-0.097444
2024-03-25T00:30:26.334Z,-0.097444
2024-03-25T00:31:25.402Z,-0.097444
2024-03-25T00:32:26.397Z,-0.097444
2024-03-25T00:33:25.406Z,-0.097444
2024-03-25T00:34:26.333Z,-0.097444
2024-03-25T00:35:26.328Z,-0.097444
2024-03-25T00:36:25.391Z,-0.097444
2024-03-25T00:37:26.375Z,-0.097444
2024-03-25T00:38:25.403Z,-0.097444
2024-03-25T00:39:26.399Z,-0.097444
2024-03-25T00:40:26.367Z,-0.097444
2024-03-25T00:41:26.351Z,-0.097444
2024-03-25T00:42:25.371Z,-0.097444
2024-03-25T00:43:25.423Z,-0.097444
2024-03-25T00:44:26.372Z,-0.097444
2024-03-25T00:45:26.370Z,-0.097444
2024-03-25T00:46:26.404Z,-0.097444
2024-03-25T00:47:25.417Z,-0.097444
2024-03-25T00:48:25.427Z,-0.097444
2024-03-25T00:49:26.405Z,-0.097444
2024-03-25T00:50:26.386Z,-0.097444
2024-03-25T00:51:26.362Z,-0.097444
2024-03-25T00:52:25.388Z,-0.097444
2024-03-25T00:53:34.066Z,-0.097444
2024-03-25T00:54:25.427Z,-0.097444
2024-03-25T00:55:26.379Z,-0.081204
2024-03-25T00:56:26.387Z,-0.097444
2024-03-25T00:57:25.441Z,-0.097444
2024-03-25T00:58:26.373Z,-0.097444
2024-03-25T00:59:25.408Z,-0.097444
2024-03-25T01:00:26.392Z,-0.097444
2024-03-25T01:01:26.387Z,-0.089323
2024-03-25T01:02:25.453Z,-0.097444
2024-03-25T01:03:26.406Z,-0.081204
2024-03-25T01:04:25.453Z,-0.097444
2024-03-25T01:05:26.401Z,-0.089324
2024-03-25T01:06:26.475Z,-0.097444
2024-03-25T01:07:25.419Z,-0.097444
2024-03-25T01:08:26.454Z,-0.097444
2024-03-25T01:09:25.474Z,-0.081203
2024-03-25T01:10:29.134Z,-0.097444
2024-03-25T01:11:25.463Z,-0.088904
2024-03-25T01:12:25.498Z,-0.097444
2024-03-25T01:13:26.429Z,-0.097444
2024-03-25T01:14:25.442Z,-0.097444
2024-03-25T01:15:26.430Z,-0.089324
2024-03-25T01:16:25.481Z,-0.089324
2024-03-25T01:17:25.557Z,-0.089324
2024-03-25T01:18:26.454Z,-0.089324
2024-03-25T01:19:25.457Z,-0.081203
2024-03-25T01:20:26.455Z,-0.097444
2024-03-25T01:21:25.491Z,-0.081204
2024-03-25T01:22:30.166Z,-0.089826
2024-03-25T01:23:25.497Z,-0.097444
2024-03-25T01:24:25.524Z,-0.089323
2024-03-25T01:25:26.478Z,-0.097444
2024-03-25T01:26:25.492Z,-0.097444
2024-03-25T01:27:26.469Z,-0.097444
2024-03-25T01:28:25.468Z,-0.097444
2024-03-25T01:29:25.513Z,-0.097444
2024-03-25T01:30:26.492Z,-0.097444
2024-03-25T01:31:25.464Z,-0.097444
2024-03-25T01:32:26.496Z,-0.097444
2024-03-25T01:33:25.473Z,-0.097444
2024-03-25T01:34:25.543Z,-0.097444
2024-03-25T01:35:26.486Z,-0.097444
2024-03-25T01:36:25.477Z,-0.097444
2024-03-25T01:37:26.519Z,-0.097444
2024-03-25T01:38:25.485Z,-0.097444
2024-03-25T01:39:29.159Z,-0.097444
2024-03-25T01:40:26.494Z,-0.097444
2024-03-25T01:41:25.554Z,-0.089324
2024-03-25T01:42:26.488Z,-0.097444
2024-03-25T01:43:25.496Z,-0.097444
2024-03-25T01:44:26.497Z,-0.097444
2024-03-25T01:45:26.501Z,-0.097444
2024-03-25T01:46:25.581Z,-0.097444
2024-03-25T01:47:26.513Z,-0.097444
2024-03-25T01:48:25.526Z,-0.097444
2024-03-25T01:49:26.512Z,-0.097444
2024-03-25T01:50:26.499Z,-0.081204
2024-03-25T01:51:30.664Z,-0.097444
2024-03-25T01:52:25.511Z,-0.097444
2024-03-25T01:53:25.564Z,-0.089323
2024-03-25T01:54:26.495Z,-0.097444
2024-03-25T01:55:26.511Z,-0.089324
2024-03-25T01:56:26.515Z,-0.097444
2024-03-25T01:57:25.579Z,-0.097444
2024-03-25T01:58:25.570Z,-0.081205
2024-03-25T01:59:26.515Z,-0.089323
2024-03-25T02:00:26.551Z,-0.097444
2024-03-25T02:01:26.529Z,-0.097444
2024-03-25T02:02:25.580Z,-0.097444
2024-03-25T02:03:25.587Z,-0.097444
2024-03-25T02:04:26.522Z,-0.097444
2024-03-25T02:05:26.533Z,-0.097444
2024-03-25T02:06:26.527Z,-0.097444
2024-03-25T02:07:25.617Z,-0.097444
2024-03-25T02:08:31.910Z,-0.097444
2024-03-25T02:09:27.856Z,-0.097444
2024-03-25T02:10:26.568Z,-0.097444
2024-03-25T02:11:26.554Z,-0.097444
2024-03-25T02:12:25.596Z,-0.097444
2024-03-25T02:13:26.555Z,-0.089324
2024-03-25T02:14:25.606Z,-0.089324
2024-03-25T02:15:26.572Z,-0.097444
2024-03-25T02:16:26.549Z,-0.097444
2024-03-25T02:17:25.625Z,-0.089324
2024-03-25T02:18:26.566Z,-0.089324
2024-03-25T02:19:25.621Z,-0.064965
2024-03-25T02:20:34.256Z,-0.075927
2024-03-25T02:21:25.618Z,-0.07873
2024-03-25T02:22:25.623Z,-0.097444
2024-03-25T02:23:26.596Z,-0.097444
2024-03-25T02:24:25.639Z,-0.097444
2024-03-25T02:25:26.564Z,-0.097444
2024-03-25T02:26:25.629Z,-0.097444
2024-03-25T02:27:25.629Z,-0.097444
2024-03-25T02:28:26.579Z,-0.097444
2024-03-25T02:29:25.637Z,-0.097444
2024-03-25T02:30:26.584Z,-0.097444
2024-03-25T02:31:25.637Z,-0.097444
2024-03-25T02:32:25.655Z,-0.097444
2024-03-25T02:33:26.594Z,-0.097444
2024-03-25T02:34:25.651Z,-0.089325
2024-03-25T02:35:26.592Z,-0.089323
2024-03-25T02:36:25.652Z,-0.097444
2024-03-25T02:37:26.606Z,-0.097444
2024-03-25T02:38:25.655Z,-0.097444
2024-03-25T02:39:25.660Z,-0.097444
2024-03-25T02:40:26.596Z,-0.097444
2024-03-25T02:41:25.666Z,-0.097444
2024-03-25T02:42:26.609Z,-0.097444
2024-03-25T02:43:25.659Z,-0.097444
2024-03-25T02:44:25.663Z,-0.097444
2024-03-25T02:45:26.654Z,-0.097444
2024-03-25T02:46:25.676Z,-0.097444
2024-03-25T02:47:26.637Z,-0.097444
2024-03-25T02:48:25.637Z,-0.097444
2024-03-25T02:49:30.395Z,-0.097444
2024-03-25T02:50:26.699Z,-0.097444
2024-03-25T02:51:25.688Z,-0.097444
2024-03-25T02:52:26.630Z,-0.097444
2024-03-25T02:53:25.693Z,-0.097444
2024-03-25T02:54:26.680Z,-0.097444
2024-03-25T02:55:26.669Z,-0.097444
2024-03-25T02:56:25.669Z,-0.097444
2024-03-25T02:57:26.641Z,-0.097444
2024-03-25T02:58:25.711Z,-0.097444
2024-03-25T02:59:26.642Z,-0.097444
2024-03-25T03:00:26.699Z,-0.097444
2024-03-25T03:01:25.678Z,-0.097444
2024-03-25T03:02:26.662Z,-0.097444
2024-03-25T03:03:25.713Z,-0.097444
2024-03-25T03:04:26.668Z,-0.097444
2024-03-25T03:05:26.691Z,-0.097444
2024-03-25T03:06:29.332Z,-0.097444
2024-03-25T03:07:25.715Z,-0.097444
2024-03-25T03:08:25.728Z,-0.097444
2024-03-25T03:09:26.654Z,-0.097444
2024-03-25T03:10:26.690Z,-0.097444
2024-03-25T03:11:26.653Z,-0.097444
2024-03-25T03:12:25.686Z,-0.097444
2024-03-25T03:13:25.728Z,-0.097444
2024-03-25T03:14:26.669Z,-0.097444
2024-03-25T03:15:26.673Z,-0.097444
2024-03-25T03:16:26.686Z,-0.097444
2024-03-25T03:17:25.745Z,-0.097444
2024-03-25T03:18:30.390Z,-0.097444
2024-03-25T03:19:25.738Z,-0.097444
2024-03-25T03:20:26.708Z,-0.097444
2024-03-25T03:21:26.687Z,-0.097444
2024-03-25T03:22:25.748Z,-0.097444
2024-03-25T03:23:26.725Z,-0.097444
2024-03-25T03:24:25.751Z,-0.097444
2024-03-25T03:25:26.713Z,-0.097444
2024-03-25T03:26:26.706Z,-0.097444
2024-03-25T03:27:25.759Z,-0.097444
2024-03-25T03:28:26.740Z,-0.097444
2024-03-25T03:29:25.722Z,-0.097444
2024-03-25T03:30:26.708Z,-0.097444
2024-03-25T03:31:26.708Z,-0.097444
2024-03-25T03:32:25.722Z,-0.097444
2024-03-25T03:33:26.766Z,-0.097444
2024-03-25T03:34:25.727Z,-0.097444
2024-03-25T03:35:26.738Z,-0.097444
2024-03-25T03:36:25.732Z,-0.097444
2024-03-25T03:37:25.785Z,-0.097444
2024-03-25T03:38:26.759Z,-0.097444
2024-03-25T03:39:25.786Z,-0.097444
2024-03-25T03:40:26.740Z,-0.097444
2024-03-25T03:41:25.786Z,-0.097444
2024-03-25T03:42:25.790Z,-0.097444
2024-03-25T03:43:26.773Z,-0.097444
2024-03-25T03:44:25.755Z,-0.097444
2024-03-25T03:45:26.755Z,-0.097444
2024-03-25T03:46:25.803Z,-0.097444
2024-03-25T03:47:30.442Z,-0.097444
2024-03-25T03:48:25.795Z,-0.097444
2024-03-25T03:49:25.802Z,-0.097444
2024-03-25T03:50:26.746Z,-0.097444
2024-03-25T03:51:25.802Z,-0.097444
2024-03-25T03:52:26.795Z,-0.097444
2024-03-25T03:53:25.815Z,-0.097444
2024-03-25T03:54:25.831Z,-0.097444
2024-03-25T03:55:26.764Z,-0.097444
2024-03-25T03:56:25.828Z,-0.097444
2024-03-25T03:57:26.785Z,-0.097444
2024-03-25T03:58:25.824Z,-0.097444
2024-03-25T03:59:25.821Z,-0.097444
2024-03-25T04:00:26.811Z,-0.097444
2024-03-25T04:01:25.780Z,-0.097444
2024-03-25T04:02:26.828Z,-0.097444
2024-03-25T04:03:25.832Z,-0.097444
2024-03-25T04:04:26.789Z,-0.097444
2024-03-25T04:05:26.783Z,-0.097444
2024-03-25T04:06:25.795Z,-0.097444
2024-03-25T04:07:26.828Z,-0.097444
2024-03-25T04:08:25.823Z,-0.097444
2024-03-25T04:09:26.793Z,-0.097444
2024-03-25T04:10:26.812Z,-0.089324
2024-03-25T04:11:25.810Z,-0.097444
2024-03-25T04:12:26.832Z,-0.097444
2024-03-25T04:13:25.849Z,-0.097444
2024-03-25T04:14:26.806Z,-0.097444
2024-03-25T04:15:26.807Z,-0.097444
2024-03-25T04:16:30.498Z,-0.097444
2024-03-25T04:17:25.864Z,-0.097444
2024-03-25T04:18:25.823Z,-0.089323
2024-03-25T04:19:26.838Z,-0.081205
2024-03-25T04:20:26.796Z,-0.089324
2024-03-25T04:21:26.851Z,-0.081203
2024-03-25T04:22:25.833Z,-0.064964
2024-03-25T04:23:25.877Z,-0.097444
2024-03-25T04:24:26.853Z,-0.089324
2024-03-25T04:25:26.849Z,-0.081203
2024-03-25T04:26:26.840Z,-0.089324
2024-03-25T04:27:25.887Z,-0.081202
2024-03-25T04:28:25.886Z,-0.081204
2024-03-25T04:29:26.867Z,-0.089324
2024-03-25T04:30:26.840Z,-0.097444
2024-03-25T04:31:26.845Z,-0.081204
2024-03-25T04:32:25.923Z,-0.097444
2024-03-25T04:33:29.482Z,-0.097444
2024-03-25T04:34:25.897Z,-0.097444
2024-03-25T04:35:26.844Z,-0.073083
2024-03-25T04:36:28.434Z,-0.081205
2024-03-25T04:37:25.858Z,-0.097444
2024-03-25T04:38:26.855Z,-0.097444
2024-03-25T04:39:25.908Z,-0.097444
2024-03-25T04:40:26.859Z,-0.097444
2024-03-25T04:41:26.869Z,-0.097444
2024-03-25T04:42:25.920Z,-0.064962
2024-03-25T04:43:26.864Z,-0.081204
2024-03-25T04:44:25.883Z,-0.089325
2024-03-25T04:45:30.629Z,-0.089827
2024-03-25T04:46:25.882Z,-0.07136
2024-03-25T04:47:25.957Z,-0.097444
2024-03-25T04:48:26.872Z,-0.089324
2024-03-25T04:49:25.929Z,-0.081204
2024-03-25T04:50:26.875Z,-0.089324
2024-03-25T04:51:25.929Z,-0.073081
2024-03-25T04:52:25.935Z,-0.097444
2024-03-25T04:53:26.878Z,-0.081202
2024-03-25T04:54:25.951Z,-0.040607
2024-03-25T04:55:26.889Z,-0.089324
2024-03-25T04:56:25.949Z,-0.097444
2024-03-25T04:57:25.958Z,-0.097444
2024-03-25T04:58:28.724Z,-0.081205
2024-03-25T04:59:25.910Z,-0.097444
2024-03-25T05:00:26.895Z,-0.097444
2024-03-25T05:01:25.992Z,-0.097444
2024-03-25T05:02:26.941Z,-0.097444
2024-03-25T05:03:25.919Z,-0.089324
2024-03-25T05:04:25.913Z,-0.097444
2024-03-25T05:05:26.893Z,-0.097444
2024-03-25T05:06:25.969Z,-0.089324
2024-03-25T05:07:26.948Z,-0.097444
2024-03-25T05:08:25.977Z,-0.081204
2024-03-25T05:09:25.929Z,-0.097444
2024-03-25T05:10:26.936Z,-0.089325
2024-03-25T05:11:25.936Z,-0.097444
2024-03-25T05:12:26.948Z,-0.089324
2024-03-25T05:13:25.984Z,-0.064964
2024-03-25T05:14:30.690Z,-0.089823
2024-03-25T05:15:26.954Z,-0.07138
2024-03-25T05:16:25.984Z,-0.073082
2024-03-25T05:17:26.956Z,-0.048722
2024-03-25T05:18:25.945Z,-0.089324
2024-03-25T05:19:26.945Z,-0.097444
2024-03-25T05:20:26.937Z,-0.04872
2024-03-25T05:21:26.001Z,-0.048725
2024-03-25T05:22:26.953Z,-0.05684
2024-03-25T05:23:26.017Z,-0.02436
2024-03-25T05:24:26.968Z,-0.048722
2024-03-25T05:25:26.955Z,-0.097444
2024-03-25T05:26:25.962Z,-0.081203
2024-03-25T05:27:26.953Z,-0.00812
2024-03-25T05:28:26.014Z,-0.056847
2024-03-25T05:29:26.964Z,-0.097444
2024-03-25T05:30:26.989Z,-0.089324
2024-03-25T05:31:26.955Z,-0.097444
2024-03-25T05:32:26.031Z,-0.081206
2024-03-25T05:33:25.979Z,-0.089324
2024-03-25T05:34:26.978Z,-0.097444
2024-03-25T05:35:26.997Z,-0.089325
2024-03-25T05:36:26.964Z,-0.089323
2024-03-25T05:37:26.027Z,-0.089324
2024-03-25T05:38:26.027Z,-0.097444
2024-03-25T05:39:27.009Z,-0.089325
2024-03-25T05:40:26.981Z,-0.032474
2024-03-25T05:41:26.995Z,-0.048726
2024-03-25T05:42:25.998Z,-0.089323
2024-03-25T05:43:30.793Z,-0.036587
2024-03-25T05:44:26.041Z,-0.001665
2024-03-25T05:45:26.991Z,-0.008116
2024-03-25T05:46:26.977Z,0.048715
2024-03-25T05:47:26.054Z,0.064958
2024-03-25T05:48:26.988Z,0.04873
2024-03-25T05:49:26.048Z,0.024369
2024-03-25T05:50:26.988Z,0.016241
2024-03-25T05:51:26.998Z,0.024355
2024-03-25T05:52:26.023Z,0.121802
2024-03-25T05:53:27.012Z,0.05684
2024-03-25T05:54:26.061Z,0.097451
2024-03-25T05:55:27.010Z,0.040602
2024-03-25T05:56:27.017Z,0.05685
2024-03-25T05:57:26.074Z,0.056835
2024-03-25T05:58:27.014Z,0.07308
2024-03-25T05:59:26.075Z,0.048715
2024-03-25T06:00:27.046Z,0.024375
2024-03-25T06:01:26.037Z,0.113675
2024-03-25T06:02:26.084Z,0.097454
2024-03-25T06:03:27.064Z,0.048715
2024-03-25T06:04:26.089Z,0.081213
2024-03-25T06:05:27.037Z,-0.016243
2024-03-25T06:06:26.095Z,0.04872
2024-03-25T06:07:26.096Z,0.146179
2024-03-25T06:08:27.081Z,0.032477
2024-03-25T06:09:26.106Z,0.08121
2024-03-25T06:10:27.047Z,-0.008122
2024-03-25T06:11:26.102Z,-0.00812
2024-03-25T06:12:30.794Z,0.024407
2024-03-25T06:13:26.100Z,0.059096
2024-03-25T06:14:26.101Z,0.032484
2024-03-25T06:15:27.060Z,0.081183
2024-03-25T06:16:26.146Z,0.081225
2024-03-25T06:17:27.066Z,0.016233
2024-03-25T06:18:26.073Z,0.03249
2024-03-25T06:19:26.074Z,-0.032481
2024-03-25T06:20:27.074Z,0.016241
2024-03-25T06:21:26.122Z,0.05684
2024-03-25T06:22:27.089Z,0.040595
2024-03-25T06:23:26.124Z,-0.008117
2024-03-25T06:24:26.078Z,0.105572
2024-03-25T06:25:27.072Z,0.016237
2024-03-25T06:26:26.136Z,0.064968
2024-03-25T06:27:27.068Z,0.081201
2024-03-25T06:28:26.144Z,-0.000004871095
2024-03-25T06:29:27.095Z,-0.008122
2024-03-25T06:30:27.082Z,-0.040597
2024-03-25T06:31:26.153Z,-0.081204
2024-03-25T06:32:27.109Z,-0.032481
2024-03-25T06:33:26.111Z,-0.032484
2024-03-25T06:34:27.095Z,0.016233
2024-03-25T06:35:27.109Z,-0.0406
2024-03-25T06:36:26.156Z,-0.06496
2024-03-25T06:37:27.126Z,-0.097444
2024-03-25T06:38:26.149Z,-0.064966
2024-03-25T06:39:27.110Z,-0.008113
2024-03-25T06:40:27.099Z,-0.040602
2024-03-25T06:41:30.842Z,-0.074596
2024-03-25T06:42:26.177Z,-0.001784
2024-03-25T06:43:26.132Z,-0.081204
2024-03-25T06:44:27.149Z,-0.081204
2024-03-25T06:45:27.111Z,-0.064964
2024-03-25T06:46:27.109Z,-0.081204
2024-03-25T06:47:26.153Z,-0.089324
2024-03-25T06:48:26.172Z,-0.089324
2024-03-25T06:49:27.153Z,-0.097444
2024-03-25T06:50:27.135Z,-0.097444
2024-03-25T06:51:27.133Z,-0.097444
2024-03-25T06:52:26.190Z,-0.097444
2024-03-25T06:53:26.206Z,-0.097444
2024-03-25T06:54:27.191Z,-0.097444
2024-03-25T06:55:27.158Z,-0.097444
2024-03-25T06:56:27.152Z,-0.097444
2024-03-25T06:57:26.225Z,-0.097444
2024-03-25T06:58:27.144Z,-0.081203
2024-03-25T06:59:26.221Z,-0.081204
2024-03-25T07:00:27.211Z,-0.081204
2024-03-25T07:01:27.142Z,-0.081204
2024-03-25T07:02:26.228Z,-0.097444
2024-03-25T07:03:27.166Z,-0.097444
2024-03-25T07:04:26.170Z,-0.081203
2024-03-25T07:05:27.163Z,-0.089324
2024-03-25T07:06:27.169Z,-0.097444
2024-03-25T07:07:26.238Z,-0.097444
2024-03-25T07:08:27.169Z,-0.097444
2024-03-25T07:09:26.185Z,-0.097444
2024-03-25T07:10:30.905Z,-0.089825
2024-03-25T07:11:26.182Z,-0.097444
2024-03-25T07:12:26.237Z,-0.097444
2024-03-25T07:13:27.167Z,-0.097444
2024-03-25T07:14:26.239Z,-0.097444
2024-03-25T07:15:27.206Z,-0.081203
2024-03-25T07:16:26.216Z,-0.073084
2024-03-25T07:17:26.256Z,-0.064965
2024-03-25T07:18:27.220Z,-0.089324
2024-03-25T07:19:26.195Z,-0.024362
2024-03-25T07:20:27.216Z,-0.089324
2024-03-25T07:21:28.198Z,-0.073085
2024-03-25T07:22:26.209Z,-0.064964
2024-03-25T07:23:27.198Z,-0.097444
2024-03-25T07:24:26.262Z,-0.048721
2024-03-25T07:25:27.212Z,-0.097444
2024-03-25T07:26:26.261Z,-0.081204
2024-03-25T07:27:27.205Z,-0.056839
2024-03-25T07:28:26.800Z,0.016241
2024-03-25T07:29:26.219Z,-0.073086
2024-03-25T07:30:27.217Z,-0.032478
2024-03-25T07:31:26.229Z,-0.016241
2024-03-25T07:32:27.261Z,-0.073082
2024-03-25T07:33:26.243Z,-0.056845
2024-03-25T07:34:26.300Z,-0.024356
2024-03-25T07:35:27.307Z,-0.016245
2024-03-25T07:36:26.280Z,0.024359
2024-03-25T07:37:27.229Z,0.016246
2024-03-25T07:38:26.439Z,0.016231
2024-03-25T07:39:30.986Z,-0.013652
2024-03-25T07:40:27.275Z,-0.019188
2024-03-25T07:41:26.254Z,0.073075
2024-03-25T07:42:27.250Z,-0.016235
2024-03-25T07:43:26.298Z,-0.024365
2024-03-25T07:44:27.255Z,0.081198
2024-03-25T07:45:27.307Z,-0.016237
2024-03-25T07:46:26.302Z,0.089312
2024-03-25T07:47:27.260Z,0.08933
2024-03-25T07:48:26.285Z,0.05685
2024-03-25T07:49:27.261Z,0.024359
2024-03-25T07:50:27.280Z,0.040606
2024-03-25T07:51:26.404Z,0.089324
2024-03-25T07:52:27.266Z,0.105565
2024-03-25T07:53:26.272Z,0.113671
2024-03-25T07:54:27.300Z,-0.016239
2024-03-25T07:55:27.312Z,0.000004871095
2024-03-25T07:56:27.719Z,0.00812
2024-03-25T07:57:26.299Z,0
2024-03-25T07:58:26.340Z,0.105561
2024-03-25T07:59:27.320Z,0.016229
2024-03-25T08:00:27.299Z,-0.032474
2024-03-25T08:01:27.314Z,0.008119
2024-03-25T08:02:26.296Z,0.032468
2024-03-25T08:03:26.382Z,0.08933
2024-03-25T08:04:27.350Z,0.016243
2024-03-25T08:05:27.352Z,0.016248
2024-03-25T08:06:27.289Z,0.048708
2024-03-25T08:07:26.343Z,-0.024354
2024-03-25T08:08:31.084Z,0.0397
2024-03-25T08:09:26.328Z,-0.045293
2024-03-25T08:10:27.323Z,-0.008117
2024-03-25T08:11:27.380Z,0.040586
2024-03-25T08:12:26.316Z,0.040613
2024-03-25T08:13:35.954Z,0.048712
2024-03-25T08:14:26.312Z,-0.032476
2024-03-25T08:15:27.302Z,0.06496
2024-03-25T08:16:27.311Z,0.105561
2024-03-25T08:17:26.359Z,0.073078
2024-03-25T08:18:27.353Z,0.048732
2024-03-25T08:19:26.326Z,0.024361
2024-03-25T08:20:27.342Z,0.008113
2024-03-25T08:21:27.355Z,0.121824
2024-03-25T08:22:26.332Z,0.089318
2024-03-25T08:23:27.314Z,0.146167
2024-03-25T08:24:26.382Z,0.089315
2024-03-25T08:25:27.334Z,0.056855
2024-03-25T08:26:26.342Z,0.081204
2024-03-25T08:27:26.435Z,0.113685
2024-03-25T08:28:27.331Z,0.105565
2024-03-25T08:29:26.390Z,0.097444
2024-03-25T08:30:27.337Z,0.194879
2024-03-25T08:31:26.468Z,0.154291
2024-03-25T08:32:26.363Z,0.040602
2024-03-25T08:33:27.359Z,0.097448
2024-03-25T08:34:26.404Z,0.056837
2024-03-25T08:35:27.346Z,0.121813
2024-03-25T08:36:26.413Z,0.064944
2024-03-25T08:37:31.083Z,0.047267
2024-03-25T08:38:26.417Z,0.059084
2024-03-25T08:39:26.368Z,0.064963
2024-03-25T08:40:27.361Z,-0.016237
2024-03-25T08:41:26.423Z,0.081204
2024-03-25T08:42:27.363Z,0.064966
2024-03-25T08:43:26.372Z,0.113689
2024-03-25T08:44:26.428Z,0.05683
2024-03-25T08:45:27.408Z,0.081198
2024-03-25T08:46:26.425Z,0.12182
2024-03-25T08:47:27.392Z,0.129937
2024-03-25T08:48:26.433Z,0.016241
2024-03-25T08:49:26.408Z,0.040586
2024-03-25T08:50:27.414Z,0.113696
2024-03-25T08:51:26.396Z,0.105575
2024-03-25T08:52:27.399Z,0.081201
2024-03-25T08:53:26.437Z,0.081207
2024-03-25T08:54:30.090Z,0.0961
2024-03-25T08:55:27.451Z,0.073313
2024-03-25T08:56:26.414Z,0.097428
2024-03-25T08:57:27.551Z,0.048734
2024-03-25T08:58:26.481Z,0.048722
2024-03-25T08:59:27.412Z,0.129918
2024-03-25T09:00:27.407Z,0.073075
2024-03-25T09:01:26.442Z,0.154312
2024-03-25T09:02:27.446Z,0.089318
2024-03-25T09:03:26.462Z,0.073083
2024-03-25T09:04:28.382Z,0.056845
2024-03-25T09:05:27.436Z,0.032479
2024-03-25T09:06:35.139Z,0.060309
2024-03-25T09:07:26.464Z,0.052323
2024-03-25T09:08:26.465Z,0.06496
2024-03-25T09:09:27.471Z,0.064966
2024-03-25T09:10:27.455Z,0.048722
2024-03-25T09:11:27.454Z,0.089305
2024-03-25T09:12:26.568Z,0.154308
2024-03-25T09:13:26.442Z,0.138031
2024-03-25T09:14:27.467Z,0.064977
2024-03-25T09:15:27.440Z,0.073063
2024-03-25T09:16:27.463Z,0.089343
2024-03-25T09:17:26.518Z,0.097448
2024-03-25T09:18:26.450Z,0.089318
2024-03-25T09:19:27.491Z,0.08933
2024-03-25T09:20:27.444Z,0.105561
2024-03-25T09:21:27.457Z,0.097431
2024-03-25T09:22:26.522Z,0.121813
2024-03-25T09:23:30.160Z,0.088344
2024-03-25T09:24:26.527Z,0.064795
2024-03-25T09:25:27.455Z,0.121809
2024-03-25T09:26:27.487Z,0.121806
2024-03-25T09:27:26.656Z,0.089324
2024-03-25T09:28:27.460Z,0.121806
2024-03-25T09:29:26.494Z,0.105541
2024-03-25T09:30:27.483Z,0.081216
2024-03-25T09:31:27.474Z,0.113675
2024-03-25T09:32:26.489Z,0.097454
2024-03-25T09:33:27.494Z,0.146179
2024-03-25T09:34:26.529Z,0.097422
2024-03-25T09:35:31.226Z,0.108318
2024-03-25T09:36:26.554Z,0.058995
2024-03-25T09:37:26.527Z,-0.00812
2024-03-25T09:38:27.486Z,0.129918
2024-03-25T09:39:26.543Z,-0.008119
2024-03-25T09:40:27.496Z,0.048725
2024-03-25T09:41:26.554Z,0.113664
2024-03-25T09:42:26.706Z,0.105565
2024-03-25T09:43:27.557Z,0.040609
2024-03-25T09:44:26.513Z,0.064963
2024-03-25T09:45:27.527Z,0.064963
2024-03-25T09:46:26.531Z,0.113675
2024-03-25T09:47:26.530Z,0.081222
2024-03-25T09:48:27.530Z,0.024349
2024-03-25T09:49:26.539Z,0.032492
2024-03-25T09:50:27.543Z,0.089312
2024-03-25T09:51:26.565Z,0.146183
2024-03-25T09:52:27.511Z,0.121809
2024-03-25T09:53:26.591Z,0.048712
2024-03-25T09:54:26.629Z,0.105565
2024-03-25T09:55:27.516Z,0.113699
2024-03-25T09:56:26.590Z,0.073063
2024-03-25T09:57:27.534Z,0.089324
2024-03-25T09:58:26.590Z,0.032492
2024-03-25T09:59:26.585Z,0.113689
2024-03-25T10:00:27.558Z,0.089324
2024-03-25T10:01:26.644Z,0.12993
2024-03-25T10:02:27.564Z,0.073083
2024-03-25T10:03:26.579Z,0.121802
2024-03-25T10:04:31.287Z,0.108176
2024-03-25T10:05:27.588Z,0.146071
2024-03-25T10:06:26.633Z,0.097435
2024-03-25T10:07:27.603Z,0.105565
2024-03-25T10:08:26.551Z,0.081192
2024-03-25T10:09:27.543Z,0.081225
2024-03-25T10:10:27.653Z,0.064963
2024-03-25T10:11:26.602Z,0.064958
2024-03-25T10:12:27.605Z,0.138054
2024-03-25T10:13:26.624Z,0.048722
2024-03-25T10:14:27.588Z,0.097435
2024-03-25T10:15:27.612Z,0.097435
2024-03-25T10:16:26.713Z,0.024365
2024-03-25T10:17:27.614Z,0.089324
2024-03-25T10:18:26.595Z,0.032488
2024-03-25T10:19:27.621Z,0.121798
2024-03-25T10:20:27.567Z,0.05685
2024-03-25T10:21:30.270Z,0.173493
2024-03-25T10:22:26.632Z,0.064772
2024-03-25T10:23:26.588Z,0.040618
2024-03-25T10:24:27.647Z,0.113664
2024-03-25T10:25:27.589Z,0.129945
2024-03-25T10:26:27.667Z,0.105558
2024-03-25T10:27:26.598Z,0.08933
2024-03-25T10:28:26.703Z,0.048708
2024-03-25T10:29:27.620Z,0.11371
2024-03-25T10:30:27.679Z,0.064955
2024-03-25T10:31:27.629Z,0.08933
2024-03-25T10:32:26.664Z,0.081186
2024-03-25T10:33:31.344Z,0.092969
2024-03-25T10:34:26.645Z,0.059079
2024-03-25T10:35:28.756Z,0.064979
2024-03-25T10:36:27.624Z,0.081189
2024-03-25T10:37:26.796Z,0.016241
2024-03-25T10:38:27.635Z,0.081219
2024-03-25T10:39:26.649Z,0.032481
2024-03-25T10:40:27.674Z,0.162394
2024-03-25T10:41:27.625Z,0.040602
2024-03-25T10:42:26.630Z,0.089333
2024-03-25T10:43:27.690Z,0.00812
2024-03-25T10:44:26.633Z,0.024353
2024-03-25T10:45:27.686Z,0.089337
2024-03-25T10:46:27.638Z,0.097435
2024-03-25T10:47:26.715Z,0.105555
2024-03-25T10:48:27.637Z,0.105585
2024-03-25T10:49:26.700Z,0.105555
2024-03-25T10:50:29.703Z,0.051199
2024-03-25T10:51:26.745Z,0.138891
2024-03-25T10:52:26.650Z,0.064968
2024-03-25T10:53:27.670Z,0.073078
2024-03-25T10:54:26.908Z,0.08933
2024-03-25T10:55:27.669Z,0.081192
2024-03-25T10:56:26.693Z,0.146195
2024-03-25T10:57:26.666Z,0.129926
2024-03-25T10:58:27.675Z,0.064952
2024-03-25T10:59:26.857Z,0.024367
2024-03-25T11:00:27.704Z,0.073083
2024-03-25T11:01:26.684Z,0.064966
2024-03-25T11:02:31.912Z,0.016013
2024-03-25T11:03:26.673Z,0.051567
2024-03-25T11:04:26.743Z,0.056843
2024-03-25T11:05:27.931Z,0.048717
2024-03-25T11:06:26.692Z,0.138042
2024-03-25T11:07:31.290Z,0.192614
2024-03-25T11:08:26.753Z,0.084698
2024-03-25T11:09:26.697Z,0.056861
2024-03-25T11:10:27.700Z,0.016235
2024-03-25T11:11:26.717Z,0.089333
2024-03-25T11:12:27.694Z,0.073083
2024-03-25T11:13:26.747Z,0.138031
2024-03-25T11:14:26.747Z,0.089337
2024-03-25T11:15:27.697Z,0.081201
2024-03-25T11:16:26.776Z,0.113685
2024-03-25T11:17:27.754Z,0.097438
2024-03-25T11:18:26.708Z,0.05684
2024-03-25T11:19:27.728Z,0.112848
2024-03-25T11:20:27.773Z,0.114526
2024-03-25T11:21:26.732Z,0.073086
2024-03-25T11:22:27.731Z,0.016239
2024-03-25T11:23:26.747Z,0.097461
2024-03-25T11:24:27.721Z,0.154287
2024-03-25T11:25:27.744Z,0.097441
2024-03-25T11:26:26.769Z,0.097422
2024-03-25T11:27:27.725Z,0.09747
2024-03-25T11:28:26.778Z,0.162381
2024-03-25T11:29:27.730Z,0.154308
2024-03-25T11:30:27.727Z,0.073075
2024-03-25T11:31:34.132Z,0.114557
2024-03-25T11:32:26.812Z,0.103457